Time;durP1;ratioP1;P1;durP2;ratioP2;P2;SDS_P1;SDS_P2;PMS_P1;PMS_P2;Temp;Humidity;BMP_temperature;BMP_pressure;BME280_temperature;BME280_humidity;BME280_pressure;Samples;Min_cycle;Max_cycle;Signal;HPM_P1;HPM_P2
2022/10/11 00:01:48;;;;;;;12.50;4.55;;;;;;;17.13;49.38;99188.28;4474887;31;20108;-80
2022/10/11 00:04:13;;;;;;;11.32;5.00;;;;;;;16.97;50.00;99190.41;4502784;31;20139;-80
2022/10/11 00:06:42;;;;;;;12.25;4.93;;;;;;;16.97;49.77;99185.94;4503173;31;20144;-80
2022/10/11 00:09:07;;;;;;;13.98;4.80;;;;;;;17.03;49.47;99184.63;4503099;31;20096;-80
2022/10/11 00:11:33;;;;;;;11.32;4.87;;;;;;;17.00;49.30;99184.87;4503060;31;20114;-80
2022/10/11 00:13:58;;;;;;;9.95;4.00;;;;;;;17.04;49.21;99184.53;4502984;31;20107;-80
2022/10/11 00:16:23;;;;;;;10.75;4.57;;;;;;;17.03;49.90;99180.13;4488676;31;20428;-80
2022/10/11 00:18:49;;;;;;;10.93;4.68;;;;;;;16.85;50.20;99185.03;4502944;31;20131;-80
2022/10/11 00:21:15;;;;;;;12.37;5.10;;;;;;;16.92;50.03;99181.91;4501124;31;20431;-79
2022/10/11 00:23:41;;;;;;;12.80;5.18;;;;;;;16.89;49.88;99178.53;4495237;31;20111;-80
2022/10/11 00:26:09;;;;;;;10.52;4.90;;;;;;;16.76;50.10;99177.69;4476145;31;20155;-79
2022/10/11 00:28:35;;;;;;;13.05;4.40;;;;;;;16.82;49.93;99179.09;4486327;31;20104;-79
2022/10/11 00:31:01;;;;;;;11.88;4.75;;;;;;;16.81;50.15;99180.88;4494265;31;20103;-80
2022/10/11 00:33:26;;;;;;;11.15;4.50;;;;;;;16.80;50.41;99178.31;4487426;32;20096;-80
2022/10/11 00:35:52;;;;;;;12.43;4.80;;;;;;;16.70;50.66;99173.66;4473115;32;20163;-79
2022/10/11 00:38:17;;;;;;;10.60;4.70;;;;;;;16.65;50.72;99167.00;4487276;32;20136;-79
2022/10/11 00:40:43;;;;;;;11.25;4.25;;;;;;;16.67;50.61;99176.56;4491176;31;20075;-79
2022/10/11 00:43:20;;;;;;;10.23;4.68;;;;;;;16.59;50.66;99173.62;4488855;31;20245;-79
2022/10/11 00:45:58;;;;;;;12.98;5.43;;;;;;;16.58;50.60;99173.75;4503175;31;20584;-79
2022/10/11 00:48:47;;;;;;;12.23;4.45;;;;;;;16.53;50.71;99171.41;4488868;31;20605;-79
2022/10/11 00:51:19;;;;;;;14.73;5.00;;;;;;;16.48;50.70;99174.41;4487958;31;20088;-80
2022/10/11 00:53:46;;;;;;;12.93;5.53;;;;;;;16.43;50.42;99167.72;4475546;32;20111;-80
2022/10/11 00:56:23;;;;;;;13.35;5.28;;;;;;;16.28;50.03;99175.88;4472740;32;20131;-80
2022/10/11 00:58:48;;;;;;;13.55;6.00;;;;;;;16.29;49.82;99174.88;4472752;32;20159;-80
2022/10/11 01:01:14;;;;;;;12.27;4.90;;;;;;;16.17;50.04;99167.81;4472632;32;20133;-80
2022/10/11 01:03:40;;;;;;;13.77;5.75;;;;;;;16.24;49.98;99166.38;4486855;32;20084;-80
2022/10/11 01:06:06;;;;;;;13.55;5.05;;;;;;;16.12;50.36;99169.94;4472614;32;20163;-80
2022/10/11 01:08:31;;;;;;;12.98;5.28;;;;;;;16.21;50.29;99163.97;4459631;32;20131;-80
2022/10/11 01:10:57;;;;;;;14.07;5.50;;;;;;;16.21;50.37;99161.31;4472423;32;20379;-80
2022/10/11 01:13:44;;;;;;;11.88;5.35;;;;;;;16.10;50.70;99161.22;4472257;32;20364;-80
2022/10/11 01:16:34;;;;;;;12.95;5.18;;;;;;;16.19;50.61;99162.37;4487177;32;20130;-80
2022/10/11 01:19:22;;;;;;;14.57;5.60;;;;;;;16.18;51.01;99161.50;4471120;31;20096;-80
2022/10/11 01:22:03;;;;;;;12.15;5.05;;;;;;;16.14;51.16;99161.84;4488251;31;20136;-80
2022/10/11 01:24:34;;;;;;;12.65;5.35;;;;;;;16.12;51.25;99167.28;4502421;31;20075;-80
2022/10/11 01:27:24;;;;;;;17.35;5.05;;;;;;;16.10;51.45;99163.88;4502460;31;20136;-80
2022/10/11 01:30:02;;;;;;;17.37;5.62;;;;;;;16.14;51.55;99159.19;4488259;31;20170;-80
2022/10/11 01:33:06;;;;;;;11.43;5.00;;;;;;;15.90;52.27;99157.34;4491333;31;20146;-79
2022/10/11 01:35:41;;;;;;;12.90;5.10;;;;;;;15.92;52.19;99158.91;4486236;32;20088;-79
2022/10/11 01:38:21;;;;;;;12.43;5.18;;;;;;;15.90;52.32;99152.88;4486651;32;20119;-80
2022/10/11 01:40:52;;;;;;;12.13;5.07;;;;;;;15.87;52.50;99155.72;4486369;32;20096;-80
2022/10/11 01:43:19;;;;;;;13.85;5.47;;;;;;;15.97;52.52;99147.09;4472119;32;20160;-80
2022/10/11 01:45:48;;;;;;;14.10;5.05;;;;;;;15.95;52.64;99147.22;4459108;32;20519;-80
2022/10/11 01:48:14;;;;;;;12.10;5.03;;;;;;;15.89;52.87;99142.34;4472072;32;20131;-80
2022/10/11 01:50:42;;;;;;;14.38;5.68;;;;;;;15.89;52.89;99137.88;4472050;32;20104;-79
2022/10/11 01:53:38;;;;;;;12.43;5.55;;;;;;;15.88;52.86;99135.34;4486220;32;20159;-79
2022/10/11 01:56:21;;;;;;;13.95;5.50;;;;;;;15.90;52.84;99136.06;4486297;32;20157;-79
2022/10/11 01:59:24;;;;;;;12.07;5.55;;;;;;;15.79;53.20;99131.50;4486105;32;20107;-79
2022/10/11 02:01:59;;;;;;;12.57;5.60;;;;;;;15.85;53.18;99140.84;4472063;32;20478;-80
2022/10/11 02:04:43;;;;;;;13.62;5.65;;;;;;;15.85;53.23;99147.00;4486262;32;20096;-79
2022/10/11 02:07:19;;;;;;;12.85;5.57;;;;;;;15.66;53.56;99150.06;4471798;32;20146;-79
2022/10/11 02:09:52;;;;;;;13.57;5.68;;;;;;;15.75;53.31;99148.63;4471919;32;20131;-81
2022/10/11 02:12:35;;;;;;;12.43;5.40;;;;;;;15.50;54.14;99144.97;4471815;32;20133;-81
2022/10/11 02:15:11;;;;;;;17.33;5.80;;;;;;;15.75;53.52;99145.13;4486002;32;20120;-81
2022/10/11 02:17:42;;;;;;;14.27;5.82;;;;;;;15.77;53.55;99141.41;4471704;32;20365;-80
2022/10/11 02:20:12;;;;;;;14.00;5.95;;;;;;;15.73;53.67;99147.87;4471608;32;20119;-80
2022/10/11 02:22:40;;;;;;;13.48;5.93;;;;;;;15.74;53.61;99141.59;4485912;32;20155;-79
2022/10/11 02:25:08;;;;;;;13.48;5.87;;;;;;;15.74;53.09;99141.59;4471654;32;20454;-80
2022/10/11 02:27:37;;;;;;;13.23;5.70;;;;;;;15.72;52.97;99136.38;4473802;32;20412;-80
2022/10/11 02:30:06;;;;;;;12.32;5.25;;;;;;;15.61;52.54;99144.25;4460702;32;20157;-80
2022/10/11 02:32:32;;;;;;;13.02;5.87;;;;;;;15.72;52.39;99146.13;4488062;32;20157;-80
2022/10/11 02:34:59;;;;;;;12.40;5.35;;;;;;;15.76;52.40;99144.16;4473583;32;20163;-81
2022/10/11 02:37:43;;;;;;;12.30;5.70;;;;;;;15.80;52.49;99143.84;4473799;32;20103;-81
2022/10/11 02:40:27;;;;;;;11.90;5.32;;;;;;;15.84;52.66;99147.13;4487695;31;20587;-81
2022/10/11 02:42:58;;;;;;;13.40;5.50;;;;;;;15.86;52.78;99146.06;4473559;32;20105;-81
2022/10/11 02:45:33;;;;;;;12.75;5.10;;;;;;;15.83;52.75;99142.78;4487892;32;20088;-79
2022/10/11 02:47:58;;;;;;;14.10;5.15;;;;;;;15.85;52.42;99143.50;4473708;32;20092;-79
2022/10/11 02:50:25;;;;;;;12.43;5.07;;;;;;;15.86;52.54;99147.87;4473535;32;20135;-79
2022/10/11 02:52:50;;;;;;;11.80;5.32;;;;;;;15.86;52.54;99150.53;4487881;32;20788;-79
2022/10/11 02:55:16;;;;;;;12.70;5.05;;;;;;;15.79;52.78;99150.09;4473576;32;20084;-77
2022/10/11 02:57:41;;;;;;;12.57;5.07;;;;;;;15.87;52.63;99146.91;4487754;32;20111;-78
2022/10/11 03:00:07;;;;;;;13.05;4.95;;;;;;;15.90;52.62;99150.22;4487621;32;20122;-78
2022/10/11 03:02:33;;;;;;;13.02;5.12;;;;;;;15.86;52.76;99150.53;4487685;32;20480;-81
2022/10/11 03:04:59;;;;;;;14.02;5.62;;;;;;;15.90;52.68;99147.56;4487992;32;20088;-78
2022/10/11 03:07:24;;;;;;;14.30;5.57;;;;;;;15.93;52.64;99149.13;4487971;32;20080;-78
2022/10/11 03:09:50;;;;;;;11.35;5.10;;;;;;;15.95;52.72;99151.69;4488002;32;20104;-78
2022/10/11 03:12:15;;;;;;;14.05;5.50;;;;;;;16.03;52.58;99151.97;4487968;32;20101;-78
2022/10/11 03:14:40;;;;;;;11.60;5.35;;;;;;;16.04;52.59;99151.03;4473664;32;20412;-78
2022/10/11 03:17:06;;;;;;;16.42;5.55;;;;;;;16.12;52.65;99140.69;4488046;32;20141;-78
2022/10/11 03:19:32;;;;;;;13.07;5.78;;;;;;;16.14;52.67;99141.44;4487809;32;20247;-78
2022/10/11 03:21:58;;;;;;;13.40;5.35;;;;;;;16.05;52.65;99142.09;4473644;32;20144;-78
2022/10/11 03:24:23;;;;;;;12.13;5.78;;;;;;;16.08;52.48;99149.84;4473297;32;20088;-78
2022/10/11 03:26:49;;;;;;;13.30;5.62;;;;;;;16.00;52.59;99149.56;4492652;31;20429;-78
2022/10/11 03:29:14;;;;;;;12.20;4.97;;;;;;;16.06;52.50;99154.44;4486617;32;20092;-78
2022/10/11 03:31:39;;;;;;;13.07;5.60;;;;;;;16.01;52.69;99154.78;4474039;32;20096;-77
2022/10/11 03:34:05;;;;;;;14.07;5.55;;;;;;;15.95;52.67;99157.00;4487538;32;20177;-78
2022/10/11 03:36:30;;;;;;;13.38;5.75;;;;;;;15.95;52.35;99162.31;4476813;31;20079;-78
2022/10/11 03:38:56;;;;;;;13.13;5.45;;;;;;;15.92;51.01;99158.91;4498820;31;20168;-80
2022/10/11 03:41:21;;;;;;;11.43;5.18;;;;;;;15.78;50.92;99164.38;4473352;32;20380;-80
2022/10/11 03:43:46;;;;;;;13.15;5.43;;;;;;;15.94;50.69;99163.28;4487496;32;20108;-78
2022/10/11 03:46:12;;;;;;;12.65;4.85;;;;;;;15.94;50.18;99164.13;4487383;32;20084;-79
2022/10/11 03:48:37;;;;;;;11.32;4.62;;;;;;;15.98;49.58;99164.75;4473318;32;20190;-78
2022/10/11 03:51:03;;;;;;;11.70;5.20;;;;;;;16.05;49.63;99163.34;4459621;32;20160;-79
2022/10/11 03:53:28;;;;;;;12.63;4.97;;;;;;;15.72;50.63;99162.06;4487379;32;20125;-79
2022/10/11 03:55:55;;;;;;;13.07;4.62;;;;;;;15.71;50.61;99161.22;4487401;32;20194;-79
2022/10/11 03:58:21;;;;;;;12.80;4.75;;;;;;;15.99;50.22;99171.75;4487338;32;20092;-79
2022/10/11 04:00:47;;;;;;;11.77;4.85;;;;;;;16.10;50.47;99164.72;4487457;32;20448;-78
2022/10/11 04:03:12;;;;;;;15.75;5.28;;;;;;;16.20;50.97;99164.91;4480530;31;20114;-81
2022/10/11 04:05:38;;;;;;;13.57;5.68;;;;;;;16.28;51.02;99162.56;4479172;31;20107;-79
2022/10/11 04:08:03;;;;;;;15.57;5.25;;;;;;;16.21;51.05;99165.78;4495105;31;20088;-80
2022/10/11 04:10:30;;;;;;;14.98;5.22;;;;;;;16.13;51.94;99176.97;4494958;31;20115;-80
2022/10/11 04:12:55;;;;;;;12.60;5.30;;;;;;;15.70;53.50;99175.50;4498721;31;20085;-79
2022/10/11 04:15:21;;;;;;;11.63;5.35;;;;;;;15.77;53.54;99172.44;4503289;31;20106;-80
2022/10/11 04:17:46;;;;;;;13.27;5.82;;;;;;;16.06;52.92;99173.03;4503259;31;20164;-81
2022/10/11 04:20:12;;;;;;;11.95;5.68;;;;;;;16.08;52.86;99176.44;4488905;31;20451;-79
2022/10/11 04:22:37;;;;;;;13.55;5.90;;;;;;;16.02;53.06;99171.56;4503271;31;20369;-83
2022/10/11 04:25:04;;;;;;;16.98;5.72;;;;;;;16.11;52.99;99182.38;4503174;31;20102;-81
2022/10/11 04:27:30;;;;;;;13.70;5.40;;;;;;;16.08;53.47;99174.62;4486234;31;20472;-81
2022/10/11 04:29:55;;;;;;;13.60;5.40;;;;;;;16.04;52.50;99175.78;4500396;31;20092;-80
2022/10/11 04:32:21;;;;;;;13.85;5.97;;;;;;;16.02;52.79;99179.53;4501570;31;20705;-80
2022/10/11 04:34:46;;;;;;;13.18;5.20;;;;;;;16.09;52.73;99178.16;4501466;31;20096;-81
2022/10/11 04:37:12;;;;;;;13.82;5.82;;;;;;;16.15;52.55;99175.03;4502319;31;20092;-80
2022/10/11 04:39:37;;;;;;;11.63;5.57;;;;;;;16.18;52.07;99174.81;4502206;31;20131;-81
2022/10/11 04:42:03;;;;;;;11.75;5.00;;;;;;;16.30;51.41;99168.63;4487926;31;20131;-81
2022/10/11 04:44:29;;;;;;;13.48;4.90;;;;;;;16.38;51.10;99165.41;4502715;31;20111;-81
2022/10/11 04:46:54;;;;;;;12.93;4.85;;;;;;;16.39;50.89;99168.91;4503213;31;20100;-80
2022/10/11 04:49:20;;;;;;;12.43;4.60;;;;;;;16.43;50.87;99175.69;4502400;31;20115;-81
2022/10/11 04:51:45;;;;;;;12.68;5.07;;;;;;;16.44;51.13;99169.44;4502743;31;20084;-80
2022/10/11 04:54:11;;;;;;;12.48;5.53;;;;;;;16.47;51.53;99177.19;4488766;31;20349;-80
2022/10/11 04:56:36;;;;;;;13.82;5.10;;;;;;;16.39;51.87;99171.56;4488537;31;20384;-82
2022/10/11 04:59:02;;;;;;;11.77;4.53;;;;;;;15.88;49.50;99172.53;4503034;31;20428;-82
2022/10/11 05:01:27;;;;;;;11.93;4.47;;;;;;;16.23;48.76;99164.69;4488360;31;20112;-82
2022/10/11 05:03:53;;;;;;;12.57;4.93;;;;;;;16.28;49.50;99167.88;4502770;31;20107;-82
2022/10/11 05:06:18;;;;;;;13.52;5.10;;;;;;;16.37;49.79;99169.00;4502646;31;20122;-82
2022/10/11 05:08:44;;;;;;;11.45;5.15;;;;;;;16.20;49.97;99172.03;4502617;31;20110;-82
2022/10/11 05:11:12;;;;;;;11.93;5.07;;;;;;;16.25;48.81;99165.44;4502660;31;20088;-82
2022/10/11 05:13:37;;;;;;;;;;;;;;;16.37;48.98;99170.84;4488584;31;20109;-82
2022/10/11 05:16:03;;;;;;;13.70;4.87;;;;;;;16.50;49.17;99159.19;4479945;31;19984;-82
2022/10/11 05:18:29;;;;;;;14.40;4.90;;;;;;;16.54;49.78;99167.78;4494016;31;20117;-82
2022/10/11 05:21:03;;;;;;;11.80;4.90;;;;;;;16.60;50.41;99171.81;4502495;31;20084;-82
2022/10/11 05:23:30;;;;;;;13.07;5.03;;;;;;;16.50;49.38;99171.66;4488135;31;20440;-82
2022/10/11 05:25:56;;;;;;;12.97;4.57;;;;;;;16.60;49.15;99167.34;4484825;32;20456;-82
2022/10/11 05:28:22;;;;;;;9.98;4.35;;;;;;;16.71;49.27;99166.56;4486760;32;20208;-82
2022/10/11 05:30:47;;;;;;;12.50;4.93;;;;;;;16.65;49.75;99175.84;4472444;32;20150;-82
2022/10/11 05:33:13;;;;;;;13.65;4.90;;;;;;;16.51;50.12;99178.66;4486633;32;20100;-82
2022/10/11 05:35:38;;;;;;;12.50;4.97;;;;;;;16.65;50.29;99173.19;4486554;32;20144;-81
2022/10/11 05:38:04;;;;;;;14.15;5.43;;;;;;;16.70;51.05;99186.97;4472278;32;20492;-82
2022/10/11 05:40:29;;;;;;;13.57;5.20;;;;;;;16.65;52.10;99190.94;4488099;31;20084;-82
2022/10/11 05:42:54;;;;;;;11.77;4.70;;;;;;;16.65;52.05;99191.81;4487916;31;20096;-82
2022/10/11 05:45:20;;;;;;;13.65;5.40;;;;;;;16.76;52.14;99190.16;4502279;31;20456;-82
2022/10/11 05:47:45;;;;;;;13.93;4.72;;;;;;;16.81;52.56;99196.84;4502127;31;20088;-82
2022/10/11 05:50:10;;;;;;;15.55;5.35;;;;;;;16.79;52.43;99198.75;4502019;31;20134;-82
2022/10/11 05:52:36;;;;;;;12.43;5.22;;;;;;;16.92;51.45;99195.22;4502022;31;20084;-82
2022/10/11 05:55:02;;;;;;;12.27;5.12;;;;;;;16.83;50.73;99205.59;4487725;31;20108;-82
2022/10/11 05:57:27;;;;;;;13.15;5.47;;;;;;;16.96;50.65;99207.31;4502016;31;20096;-82
2022/10/11 05:59:53;;;;;;;14.30;4.85;;;;;;;16.89;51.08;99214.94;4501922;31;20355;-82
2022/10/11 06:02:18;;;;;;;13.88;5.62;;;;;;;16.95;50.27;99214.47;4500958;31;20085;-82
2022/10/11 06:04:44;;;;;;;14.57;4.80;;;;;;;16.98;49.40;99211.59;4488169;32;20130;-80
2022/10/11 06:07:09;;;;;;;14.75;5.35;;;;;;;16.68;50.55;99219.97;4488151;32;20360;-80
2022/10/11 06:09:35;;;;;;;11.65;5.10;;;;;;;16.95;49.59;99216.28;4488037;32;20100;-80
2022/10/11 06:12:00;;;;;;;14.50;4.85;;;;;;;17.17;48.78;99219.06;4473636;32;20100;-79
2022/10/11 06:14:26;;;;;;;12.90;4.78;;;;;;;17.18;48.55;99218.09;4488014;32;20101;-81
2022/10/11 06:16:51;;;;;;;16.08;4.72;;;;;;;17.29;48.12;99218.13;4488057;32;20152;-79
2022/10/11 06:19:17;;;;;;;14.32;5.10;;;;;;;17.37;47.94;99220.22;4473601;32;20126;-79
2022/10/11 06:21:44;;;;;;;12.48;4.60;;;;;;;17.49;47.19;99219.25;4473541;32;20092;-79
2022/10/11 06:24:11;;;;;;;12.07;5.13;;;;;;;17.72;47.07;99221.16;4486050;32;20165;-79
2022/10/11 06:26:36;;;;;;;11.02;4.78;;;;;;;17.54;46.62;99226.06;4486557;32;20100;-80
2022/10/11 06:29:02;;;;;;;13.43;5.28;;;;;;;17.87;46.60;99228.00;4487622;32;20092;-79
2022/10/11 06:31:27;;;;;;;11.48;4.80;;;;;;;17.83;47.45;99224.69;4473476;32;20177;-80
2022/10/11 06:33:53;;;;;;;13.65;4.93;;;;;;;17.95;46.53;99230.06;4487784;32;20465;-79
2022/10/11 06:36:18;;;;;;;14.77;5.00;;;;;;;18.10;45.29;99223.53;4473283;32;20121;-80
2022/10/11 06:38:44;;;;;;;14.82;5.00;;;;;;;18.16;45.88;99225.69;4473762;31;20348;-85
2022/10/11 06:41:24;;;;;;;13.62;4.82;;;;;;;18.34;45.37;99225.22;4488399;32;20314;-85
2022/10/11 06:43:49;;;;;;;13.73;5.43;;;;;;;18.15;45.61;99229.31;4474013;32;20127;-85
2022/10/11 06:46:15;;;;;;;13.55;5.40;;;;;;;17.66;45.93;99231.31;4473591;32;20105;-82
2022/10/11 06:48:42;;;;;;;11.70;4.55;;;;;;;17.51;46.82;99228.97;4473855;32;20084;-85
2022/10/11 06:51:09;;;;;;;14.18;4.82;;;;;;;17.85;46.36;99228.09;4473894;32;20088;-79
2022/10/11 06:53:35;;;;;;;12.45;5.25;;;;;;;17.84;45.83;99231.72;4460679;32;20116;-82
2022/10/11 06:56:05;;;;;;;14.27;4.68;;;;;;;18.18;45.20;99231.75;4488060;32;20123;-82
2022/10/11 06:58:31;;;;;;;11.00;4.65;;;;;;;18.06;45.83;99232.72;4476041;31;20117;-80
2022/10/11 07:01:01;;;;;;;13.23;4.68;;;;;;;17.76;47.42;99236.78;4492317;31;20141;-80
2022/10/11 07:03:27;;;;;;;13.32;5.12;;;;;;;17.86;47.08;99235.12;4486514;31;20109;-81
2022/10/11 07:05:52;;;;;;;14.68;5.07;;;;;;;17.48;47.54;99241.56;4500889;31;20439;-81
2022/10/11 07:08:18;;;;;;;13.57;5.22;;;;;;;17.47;48.40;99249.66;4501094;31;20138;-81
2022/10/11 07:10:43;;;;;;;13.62;5.07;;;;;;;17.18;48.98;99254.50;4503668;31;20151;-82
2022/10/11 07:13:08;;;;;;;14.38;5.97;;;;;;;17.14;48.09;99245.91;4503462;31;20123;-82
2022/10/11 07:15:39;;;;;;;14.63;6.55;;;;;;;17.39;48.84;99252.91;4503736;31;20343;-82
2022/10/11 07:18:06;;;;;;;13.05;5.53;;;;;;;17.06;50.50;99256.28;4476429;31;20788;-83
2022/10/11 07:20:31;;;;;;;12.13;5.30;;;;;;;17.73;48.26;99253.00;4488887;31;20501;-81
2022/10/11 07:22:59;;;;;;;12.77;5.30;;;;;;;17.36;49.22;99257.59;4489090;31;20101;-83
2022/10/11 07:25:25;;;;;;;12.05;5.43;;;;;;;17.81;48.67;99247.06;4489412;31;20100;-82
2022/10/11 07:27:50;;;;;;;14.05;6.00;;;;;;;17.90;48.28;99249.06;4503239;31;20120;-83
2022/10/11 07:30:15;;;;;;;15.05;5.72;;;;;;;17.87;47.97;99249.31;4488937;31;20088;-83
2022/10/11 07:32:41;;;;;;;12.57;5.75;;;;;;;18.32;46.49;99248.50;4503359;31;20108;-84
2022/10/11 07:35:09;;;;;;;16.37;6.05;;;;;;;18.46;46.92;99245.56;4489032;31;20133;-83
2022/10/11 07:37:35;;;;;;;14.60;5.68;;;;;;;17.89;48.07;99250.03;4503064;31;20088;-84
2022/10/11 07:40:00;;;;;;;13.77;5.43;;;;;;;18.67;46.39;99251.00;4503050;31;20076;-84
2022/10/11 07:42:25;;;;;;;13.18;5.47;;;;;;;18.72;47.00;99255.97;4489163;31;20123;-85
2022/10/11 07:44:51;;;;;;;14.02;5.12;;;;;;;18.91;46.03;99250.88;4489050;31;20104;-84
2022/10/11 07:47:16;;;;;;;12.63;6.12;;;;;;;18.77;46.01;99249.25;4503435;31;20092;-83
2022/10/11 07:49:42;;;;;;;12.32;5.35;;;;;;;18.44;46.95;99252.84;4488688;31;20110;-83
2022/10/11 07:52:14;;;;;;;14.23;6.07;;;;;;;19.06;45.15;99251.41;4503243;31;20111;-83
2022/10/11 07:54:40;;;;;;;14.43;6.20;;;;;;;17.73;48.64;99262.81;4503269;31;20150;-83
2022/10/11 07:57:05;;;;;;;14.50;6.00;;;;;;;18.82;46.03;99256.94;4503212;31;20454;-82
2022/10/11 07:59:31;;;;;;;13.73;5.68;;;;;;;19.07;45.38;99260.28;4503270;31;20084;-82
2022/10/11 08:01:56;;;;;;;12.95;5.32;;;;;;;19.30;44.67;99253.87;4488836;31;20096;-85
2022/10/11 08:04:21;;;;;;;13.35;5.93;;;;;;;19.34;44.81;99255.31;4503128;31;20444;-85
2022/10/11 08:06:47;;;;;;;15.88;5.80;;;;;;;19.29;45.37;99252.16;4503092;31;20076;-86
2022/10/11 08:09:12;;;;;;;13.43;6.35;;;;;;;19.57;45.35;99249.88;4488719;31;20427;-84
2022/10/11 08:11:38;;;;;;;13.20;5.60;;;;;;;19.75;44.57;99251.00;4503013;31;20486;-87
2022/10/11 08:14:07;;;;;;;12.27;5.40;;;;;;;19.78;44.55;99253.44;4503090;31;20375;-86
2022/10/11 08:16:34;;;;;;;15.50;6.45;;;;;;;20.03;43.82;99264.69;4503428;31;20080;-86
2022/10/11 08:19:01;;;;;;;14.32;6.18;;;;;;;20.16;43.86;99261.78;4503248;31;20075;-86
2022/10/11 08:21:27;;;;;;;12.70;6.30;;;;;;;20.39;43.77;99252.59;4489167;31;20100;-86
2022/10/11 08:23:52;;;;;;;14.07;6.50;;;;;;;20.59;43.36;99258.91;4501997;31;20379;-86
2022/10/11 08:26:18;;;;;;;16.85;7.40;;;;;;;20.22;44.30;99264.78;4502999;31;20501;-86
2022/10/11 08:28:43;;;;;;;16.75;7.07;;;;;;;20.40;44.47;99261.50;4503011;31;20413;-83
2022/10/11 08:31:12;;;;;;;16.60;7.00;;;;;;;19.81;46.09;99266.50;4502972;31;20096;-83
2022/10/11 08:33:41;;;;;;;17.08;7.47;;;;;;;20.22;45.43;99262.13;4488662;31;20122;-83
2022/10/11 08:36:07;;;;;;;17.73;8.50;;;;;;;20.46;45.18;99260.09;4503089;31;20088;-84
2022/10/11 08:38:35;;;;;;;14.85;7.97;;;;;;;20.13;46.05;99264.75;4488623;31;20085;-83
2022/10/11 08:41:18;;;;;;;15.68;7.03;;;;;;;20.33;45.44;99263.00;4488990;31;20096;-83
2022/10/11 08:43:51;;;;;;;15.63;8.18;;;;;;;20.22;46.57;99263.91;4488602;31;20388;-84
2022/10/11 08:46:21;;;;;;;16.98;8.73;;;;;;;20.17;46.52;99258.16;4503086;31;20075;-83
2022/10/11 08:48:48;;;;;;;14.25;7.30;;;;;;;20.10;46.18;99254.31;4488506;31;20096;-84
2022/10/11 08:51:23;;;;;;;15.52;6.80;;;;;;;20.22;45.99;99258.56;4488492;31;20122;-85
2022/10/11 08:54:26;;;;;;;17.20;7.93;;;;;;;20.39;45.71;99249.91;4488373;31;20492;-92
2022/10/11 08:56:52;;;;;;;16.42;8.95;;;;;;;20.47;45.78;99251.91;4502714;31;20088;-86
2022/10/11 08:59:30;;;;;;;20.52;8.35;;;;;;;20.45;46.52;99253.87;4502671;31;20112;-85
2022/10/11 09:02:02;;;;;;;16.35;8.25;;;;;;;20.40;46.45;99261.50;4488514;31;20489;-85
2022/10/11 09:04:31;;;;;;;16.70;8.48;;;;;;;20.54;46.48;99257.59;4488442;31;20119;-86
2022/10/11 09:06:59;;;;;;;17.85;8.60;;;;;;;20.60;46.46;99267.78;4487989;31;20466;-85
2022/10/11 09:09:53;;;;;;;18.08;8.88;;;;;;;20.61;46.13;99266.81;4502687;31;20713;-84
2022/10/11 09:12:34;;;;;;;20.12;9.57;;;;;;;20.71;46.04;99259.66;4488460;31;20499;-85
2022/10/11 09:15:15;;;;;;;19.00;10.13;;;;;;;20.79;46.12;99257.13;4488265;31;20165;-85
2022/10/11 09:18:03;;;;;;;19.65;9.68;;;;;;;20.82;46.07;99261.34;4488513;31;20475;-84
2022/10/11 09:21:21;;;;;;;20.65;10.77;;;;;;;20.74;46.37;99264.72;4475243;31;20473;-85
2022/10/11 09:24:05;;;;;;;20.40;10.80;;;;;;;20.87;46.77;99260.94;4391671;32;20146;-85
2022/10/11 09:26:47;;;;;;;19.60;10.48;;;;;;;21.06;46.36;99278.88;4391811;32;20141;-85
2022/10/11 09:29:30;;;;;;;17.48;9.60;;;;;;;20.79;46.30;99270.50;4379503;32;20302;-85
2022/10/11 09:31:57;;;;;;;17.70;9.73;;;;;;;20.99;46.27;99278.56;4392016;32;20472;-85
2022/10/11 09:34:26;;;;;;;16.90;8.63;;;;;;;21.11;45.75;99269.47;4379126;32;20364;-85
2022/10/11 09:37:29;;;;;;;17.48;8.43;;;;;;;21.33;44.51;99278.22;4391762;32;20125;-84
2022/10/11 09:40:18;;;;;;;17.42;8.45;;;;;;;21.02;44.16;99284.50;4378771;32;20094;-85
2022/10/11 09:42:43;;;;;;;17.52;9.20;;;;;;;21.05;44.67;99279.84;4392026;32;20090;-84
2022/10/11 09:45:16;;;;;;;20.50;10.20;;;;;;;21.36;44.24;99273.41;4379429;32;20132;-85
2022/10/11 09:47:41;;;;;;;19.02;9.93;;;;;;;21.55;45.19;99277.94;4391949;32;20182;-85
2022/10/11 09:50:29;;;;;;;19.08;10.85;;;;;;;21.71;45.26;99274.69;4391881;32;20494;-85
2022/10/11 09:53:00;;;;;;;18.60;10.38;;;;;;;21.83;44.78;99270.03;4391541;32;20098;-85
2022/10/11 09:55:30;;;;;;;19.58;10.63;;;;;;;21.87;44.54;99267.91;4391684;32;20107;-85
2022/10/11 09:57:56;;;;;;;21.83;11.82;;;;;;;21.99;44.72;99274.78;4393302;32;20144;-85
2022/10/11 10:00:27;;;;;;;19.80;10.55;;;;;;;22.07;44.40;99277.56;4452883;31;20136;-85
2022/10/11 10:02:57;;;;;;;20.35;10.65;;;;;;;22.22;44.59;99275.28;4501962;31;20068;-85
2022/10/11 10:05:24;;;;;;;24.27;12.18;;;;;;;22.24;44.62;99273.28;4474588;31;20112;-84
2022/10/11 10:08:28;;;;;;;20.27;11.15;;;;;;;22.21;44.44;99272.75;4501828;31;20110;-85
2022/10/11 10:10:58;;;;;;;20.42;10.80;;;;;;;22.36;44.21;99277.50;4408981;32;20086;-85
2022/10/11 10:13:37;;;;;;;22.92;10.95;;;;;;;22.53;43.74;99270.53;4408853;32;20108;-85
2022/10/11 10:16:04;;;;;;;21.20;11.57;;;;;;;22.51;43.49;99271.69;4421802;32;20244;-85
2022/10/11 10:18:34;;;;;;;22.15;11.27;;;;;;;22.44;43.82;99274.09;4408710;32;20106;-85
2022/10/11 10:21:01;;;;;;;22.20;11.27;;;;;;;22.73;43.01;99268.56;4421902;32;20116;-85
2022/10/11 10:23:33;;;;;;;19.35;10.77;;;;;;;22.87;42.74;99266.38;4409047;32;20085;-86
2022/10/11 10:26:11;;;;;;;20.42;11.43;;;;;;;22.94;42.69;99259.41;4396271;32;20148;-85
2022/10/11 10:28:36;;;;;;;24.23;11.68;;;;;;;22.92;42.67;99262.25;4421784;32;20157;-85
2022/10/11 10:31:01;;;;;;;20.58;10.48;;;;;;;22.86;42.63;99259.34;4408899;32;20152;-85
2022/10/11 10:33:32;;;;;;;21.75;11.98;;;;;;;22.78;42.79;99260.91;4421627;32;20106;-85
2022/10/11 10:36:14;;;;;;;20.33;10.60;;;;;;;22.93;42.71;99261.25;4421417;32;20117;-85
2022/10/11 10:38:46;;;;;;;19.37;11.45;;;;;;;22.91;42.99;99257.88;4408398;32;20110;-85
2022/10/11 10:41:13;;;;;;;20.12;10.95;;;;;;;22.94;43.27;99264.78;4408705;32;20094;-85
2022/10/11 10:43:40;;;;;;;18.13;11.07;;;;;;;23.02;43.31;99264.03;4422521;31;20131;-85
2022/10/11 10:46:24;;;;;;;20.02;11.25;;;;;;;23.05;42.47;99272.66;4501559;31;20210;-85
2022/10/11 10:48:58;;;;;;;18.80;10.98;;;;;;;22.82;42.61;99264.16;4504089;31;20092;-85
2022/10/11 10:51:52;;;;;;;20.05;12.02;;;;;;;22.94;42.36;99265.62;4489419;31;20620;-85
2022/10/11 10:54:38;;;;;;;20.58;11.55;;;;;;;22.96;42.57;99260.09;4503671;31;20462;-85
2022/10/11 10:57:20;;;;;;;21.85;12.10;;;;;;;22.97;43.08;99254.59;4503769;31;20084;-85
2022/10/11 11:00:04;;;;;;;21.05;11.80;;;;;;;22.16;43.69;99259.78;4489193;31;20148;-84
2022/10/11 11:03:01;;;;;;;19.35;11.40;;;;;;;22.16;44.03;99255.25;4489249;31;20080;-86
2022/10/11 11:05:48;;;;;;;19.40;10.98;;;;;;;22.42;43.90;99249.22;4489293;31;20072;-85
2022/10/11 11:08:15;;;;;;;19.50;11.15;;;;;;;22.49;43.77;99258.41;4503790;31;20176;-85
2022/10/11 11:10:47;;;;;;;21.50;12.88;;;;;;;22.41;43.87;99252.94;4488977;31;20118;-85
2022/10/11 11:13:41;;;;;;;18.35;10.85;;;;;;;22.04;44.62;99259.09;4503708;31;20468;-85
2022/10/11 11:16:27;;;;;;;18.92;11.27;;;;;;;22.25;44.51;99250.88;4488972;31;20431;-85
2022/10/11 11:19:31;;;;;;;18.08;10.45;;;;;;;21.59;45.05;99262.41;4489284;31;20512;-85
2022/10/11 11:21:56;;;;;;;18.83;10.48;;;;;;;22.04;44.62;99251.06;4502832;31;20089;-86
2022/10/11 11:24:53;;;;;;;19.27;11.10;;;;;;;22.14;43.84;99254.53;4503453;31;20076;-85
2022/10/11 11:27:39;;;;;;;18.30;10.73;;;;;;;21.91;44.25;99255.88;4503602;31;20480;-85
2022/10/11 11:30:07;;;;;;;17.27;10.45;;;;;;;21.80;44.84;99249.69;4503465;31;20145;-85
2022/10/11 11:32:42;;;;;;;22.17;11.35;;;;;;;21.93;45.08;99245.87;4489262;31;20403;-85
2022/10/11 11:35:13;;;;;;;18.27;10.50;;;;;;;21.90;44.94;99252.34;4503388;31;20187;-85
2022/10/11 11:37:40;;;;;;;20.62;10.82;;;;;;;22.08;44.31;99246.22;4489085;31;20083;-85
2022/10/11 11:40:15;;;;;;;22.05;10.95;;;;;;;22.16;43.93;99241.00;4488969;31;20161;-85